Time;durP1;ratioP1;P1;durP2;ratioP2;P2;SDS_P1;SDS_P2;PMS_P1;PMS_P2;Temp;Humidity;BMP_temperature;BMP_pressure;BME280_temperature;BME280_humidity;BME280_pressure;Samples;Min_cycle;Max_cycle;Signal;HPM_P1;HPM_P2
2022/04/21 00:02:33;;;;;;;7.57;6.77;;;;;;;;;;10461419;28;20760;-77
2022/04/21 00:07:34;;;;;;;8.07;6.93;;;;;;;;;;10478227;28;20697;-77
2022/04/21 00:12:34;;;;;;;8.87;7.97;;;;;;;;;;10477174;28;20056;-77
2022/04/21 00:17:35;;;;;;;10.45;7.53;;;;;;;;;;10480309;28;20382;-77
2022/04/21 00:27:56;;;;;;;12.05;10.25;;;;;;;;;;10467801;28;20590;-76
2022/04/21 00:32:56;;;;;;;14.05;11.23;;;;;;;;;;10458577;28;20198;-77
2022/04/21 00:37:59;;;;;;;16.53;10.93;;;;;;;;;;10459379;28;20056;-78
2022/04/21 00:43:00;;;;;;;12.70;10.43;;;;;;;;;;10474375;28;20275;-76
2022/04/21 00:48:04;;;;;;;12.90;10.33;;;;;;;;;;10457599;28;20044;-77
2022/04/21 00:53:04;;;;;;;13.30;10.88;;;;;;;;;;10453598;28;20051;-78
2022/04/21 00:58:05;;;;;;;12.63;10.35;;;;;;;;;;10497248;28;20041;-77
2022/04/21 01:03:06;;;;;;;11.25;8.93;;;;;;;;;;10458057;28;20102;-76
2022/04/21 01:08:08;;;;;;;13.45;10.30;;;;;;;;;;10474778;28;20052;-77
2022/04/21 01:13:10;;;;;;;13.73;10.88;;;;;;;;;;10441998;28;20045;-76
2022/04/21 01:18:12;;;;;;;13.27;10.85;;;;;;;;;;10474546;28;20052;-77
2022/04/21 01:23:15;;;;;;;13.55;10.93;;;;;;;;;;10468832;28;20127;-78
2022/04/21 01:28:15;;;;;;;11.93;9.93;;;;;;;;;;10480435;28;20048;-76
2022/04/21 01:33:16;;;;;;;16.08;10.45;;;;;;;;;;10454796;28;20090;-77
2022/04/21 01:43:37;;;;;;;12.20;10.15;;;;;;;;;;10463753;28;20368;-78
2022/04/21 01:48:40;;;;;;;12.23;9.57;;;;;;;;;;10444737;28;20448;-77
2022/04/21 01:53:40;;;;;;;13.40;10.98;;;;;;;;;;10457917;28;20044;-76
2022/04/21 01:58:41;;;;;;;14.00;10.43;;;;;;;;;;10478146;28;20074;-78
2022/04/21 02:03:49;;;;;;;14.70;12.00;;;;;;;;;;10481119;28;20056;-78
2022/04/21 02:08:55;;;;;;;14.20;11.35;;;;;;;;;;10455493;28;20115;-78
2022/04/21 02:13:56;;;;;;;15.60;12.75;;;;;;;;;;10467580;28;20052;-76
2022/04/21 02:18:58;;;;;;;14.80;11.38;;;;;;;;;;10462062;28;20048;-76
2022/04/21 02:23:59;;;;;;;18.05;11.88;;;;;;;;;;10473717;28;20112;-76
2022/04/21 02:28:59;;;;;;;16.08;11.18;;;;;;;;;;10480932;28;20083;-76
2022/04/21 02:34:00;;;;;;;11.87;9.70;;;;;;;;;;10471783;28;20029;-76
2022/04/21 02:39:02;;;;;;;15.43;11.95;;;;;;;;;;10485101;28;20135;-77
2022/04/21 02:44:02;;;;;;;15.57;12.23;;;;;;;;;;10458204;28;20062;-76
2022/04/21 02:49:04;;;;;;;15.63;13.30;;;;;;;;;;10457549;28;20322;-76
2022/04/21 02:59:23;;;;;;;13.65;10.68;;;;;;;;;;10463710;28;20052;-76
2022/04/21 03:04:24;;;;;;;15.27;12.88;;;;;;;;;;10461251;28;20109;-78
2022/04/21 03:09:25;;;;;;;13.73;10.60;;;;;;;;;;10449389;28;20044;-76
2022/04/21 03:14:26;;;;;;;14.40;12.20;;;;;;;;;;10465102;28;20291;-76
2022/04/21 03:19:27;;;;;;;12.57;10.70;;;;;;;;;;10467000;28;20131;-77
2022/04/21 03:24:29;;;;;;;14.63;11.35;;;;;;;;;;10478759;28;20040;-76
2022/04/21 03:29:30;;;;;;;12.93;10.55;;;;;;;;;;10464312;28;20053;-77
2022/04/21 03:34:31;;;;;;;13.85;11.30;;;;;;;;;;10477049;28;20040;-77
2022/04/21 03:39:33;;;;;;;11.77;9.17;;;;;;;;;;10458634;28;20041;-77
2022/04/21 03:44:34;;;;;;;12.02;10.18;;;;;;;;;;10470818;28;20417;-76
2022/04/21 03:49:35;;;;;;;14.70;11.43;;;;;;;;;;10492062;28;20089;-77
2022/04/21 03:54:35;;;;;;;13.90;10.43;;;;;;;;;;10504124;28;20106;-76
2022/04/21 03:59:36;;;;;;;13.45;11.15;;;;;;;;;;10495229;28;20362;-77
2022/04/21 04:04:37;;;;;;;12.48;10.38;;;;;;;;;;10504395;28;20040;-77
2022/04/21 04:15:00;;;;;;;13.75;10.40;;;;;;;;;;10499721;28;20044;-75
2022/04/21 04:20:00;;;;;;;12.60;10.32;;;;;;;;;;10477601;28;20041;-77
2022/04/21 04:25:01;;;;;;;12.48;9.68;;;;;;;;;;10503543;28;20068;-76
2022/04/21 04:30:07;;;;;;;11.50;9.80;;;;;;;;;;10490267;28;20088;-76
2022/04/21 04:35:07;;;;;;;12.10;9.45;;;;;;;;;;10494159;28;20048;-76
2022/04/21 04:40:08;;;;;;;11.98;10.25;;;;;;;;;;10466486;28;20041;-75
2022/04/21 04:50:27;;;;;;;12.70;10.27;;;;;;;;;;10498571;28;20135;-75
2022/04/21 04:55:30;;;;;;;12.20;9.20;;;;;;;;;;10473052;28;20036;-75
2022/04/21 05:00:30;;;;;;;11.97;10.07;;;;;;;;;;10470378;28;20475;-77
2022/04/21 05:05:31;;;;;;;13.25;10.88;;;;;;;;;;10488809;28;20068;-75
2022/04/21 05:10:31;;;;;;;12.43;9.27;;;;;;;;;;10499104;28;20125;-74
2022/04/21 05:15:31;;;;;;;11.57;9.70;;;;;;;;;;10483327;28;20290;-73
2022/04/21 05:20:32;;;;;;;15.00;9.70;;;;;;;;;;10471286;28;20040;-76
2022/04/21 05:25:36;;;;;;;11.27;9.32;;;;;;;;;;10468876;28;20122;-75
2022/04/21 05:30:55;;;;;;;12.27;9.38;;;;;;;;;;10493461;28;20493;-75
2022/04/21 05:35:57;;;;;;;13.25;9.77;;;;;;;;;;10496782;28;20051;-77
2022/04/21 05:40:58;;;;;;;12.23;9.60;;;;;;;;;;10505879;28;20041;-77
2022/04/21 05:45:58;;;;;;;13.32;10.23;;;;;;;;;;10484995;28;20064;-75
2022/04/21 05:50:59;;;;;;;12.43;10.15;;;;;;;;;;10507670;28;20093;-78
2022/04/21 05:56:00;;;;;;;14.05;10.45;;;;;;;;;;10490247;28;20065;-76
2022/04/21 06:01:01;;;;;;;15.15;11.18;;;;;;;;;;10471394;28;20056;-77
2022/04/21 06:06:02;;;;;;;14.57;11.07;;;;;;;;;;10477168;28;20074;-77
2022/04/21 06:11:03;;;;;;;12.88;10.27;;;;;;;;;;10460541;28;20136;-78
2022/04/21 06:16:05;;;;;;;13.00;9.73;;;;;;;;;;10466218;28;20037;-77
2022/04/21 06:21:06;;;;;;;15.45;10.88;;;;;;;;;;10444983;28;20424;-77
2022/04/21 06:26:07;;;;;;;16.27;10.07;;;;;;;;;;10446472;28;20048;-78
2022/04/21 06:31:08;;;;;;;15.63;11.20;;;;;;;;;;10455620;28;20336;-77
2022/04/21 06:36:08;;;;;;;12.75;9.82;;;;;;;;;;10466208;28;20771;-79
2022/04/21 06:41:11;;;;;;;15.37;10.87;;;;;;;;;;10475027;28;20480;-76
2022/04/21 06:51:31;;;;;;;13.82;9.57;;;;;;;;;;10513073;28;20069;-77
2022/04/21 06:56:32;;;;;;;11.13;9.23;;;;;;;;;;10508115;28;20088;-78
2022/04/21 07:01:35;;;;;;;15.13;10.18;;;;;;;;;;10506968;28;20024;-77
2022/04/21 07:06:35;;;;;;;12.77;8.95;;;;;;;;;;10524866;28;20053;-77
2022/04/21 07:11:38;;;;;;;13.98;9.68;;;;;;;;;;10483682;28;20079;-76
2022/04/21 07:16:38;;;;;;;11.52;10.32;;;;;;;;;;10513301;28;20044;-79
2022/04/21 07:21:39;;;;;;;11.25;8.77;;;;;;;;;;10531610;28;20080;-76
2022/04/21 07:26:40;;;;;;;10.25;8.38;;;;;;;;;;10499733;28;20045;-77
2022/04/21 07:31:42;;;;;;;10.52;8.90;;;;;;;;;;10516712;28;20040;-78
2022/04/21 07:36:46;;;;;;;11.20;9.73;;;;;;;;;;10477017;28;20036;-77
2022/04/21 07:41:46;;;;;;;12.32;9.40;;;;;;;;;;10461839;28;20055;-77
2022/04/21 07:46:47;;;;;;;11.27;9.68;;;;;;;;;;10461539;28;20040;-77
2022/04/21 07:51:48;;;;;;;10.77;9.18;;;;;;;;;;10483091;28;20056;-77
2022/04/21 07:56:48;;;;;;;10.23;8.50;;;;;;;;;;10471063;28;20948;-76
2022/04/21 08:01:51;;;;;;;14.15;8.82;;;;;;;;;;10463193;28;20877;-76
2022/04/21 08:06:51;;;;;;;11.73;9.68;;;;;;;;;;10478347;28;20146;-76
2022/04/21 08:11:53;;;;;;;11.03;8.03;;;;;;;;;;10489288;28;20084;-76
2022/04/21 08:16:57;;;;;;;10.68;8.73;;;;;;;;;;10463640;28;20274;-78
2022/04/21 08:21:59;;;;;;;9.85;8.48;;;;;;;;;;10472258;28;20128;-77
2022/04/21 08:37:41;;;;;;;9.45;8.45;;;;;;;;;;10471915;28;20040;-77
2022/04/21 08:42:43;;;;;;;9.63;7.78;;;;;;;;;;10473898;28;20132;-78
2022/04/21 08:47:48;;;;;;;10.70;8.25;;;;;;;;;;10467150;28;20037;-76
2022/04/21 08:52:48;;;;;;;;;;;;;;;;;;10453430;28;20044;-78
2022/04/21 08:57:49;;;;;;;9.75;7.97;;;;;;;;;;10474096;28;20370;-77
2022/04/21 09:02:51;;;;;;;10.32;8.55;;;;;;;;;;10461815;28;20128;-78
2022/04/21 09:07:52;;;;;;;10.02;8.90;;;;;;;;;;10471086;28;20135;-77
2022/04/21 09:12:55;;;;;;;9.98;8.52;;;;;;;;;;10499588;28;20051;-78
2022/04/21 09:17:58;;;;;;;10.63;8.85;;;;;;;;;;10457091;28;20151;-77
2022/04/21 09:23:00;;;;;;;10.87;8.67;;;;;;;;;;10465548;28;20530;-77
2022/04/21 09:28:03;;;;;;;8.40;7.55;;;;;;;;;;10467702;28;20422;-76
2022/04/21 09:33:04;;;;;;;8.80;7.88;;;;;;;;;;10470475;28;20104;-70
2022/04/21 09:38:04;;;;;;;9.23;8.18;;;;;;;;;;10450007;28;20041;-70
2022/04/21 09:43:05;;;;;;;10.52;8.27;;;;;;;;;;10448017;28;20451;-72
2022/04/21 09:48:05;;;;;;;8.77;7.60;;;;;;;;;;10468425;28;20059;-70
2022/04/21 09:53:06;;;;;;;12.15;8.65;;;;;;;;;;10454015;28;20041;-71
2022/04/21 09:58:07;;;;;;;9.90;6.80;;;;;;;;;;10444699;28;20052;-71
2022/04/21 10:03:08;;;;;;;8.35;6.50;;;;;;;;;;10464373;28;20032;-71
2022/04/21 10:08:10;;;;;;;8.73;7.07;;;;;;;;;;10466287;28;20143;-70
2022/04/21 10:13:11;;;;;;;6.13;5.32;;;;;;;;;;10465973;28;20500;-71
2022/04/21 10:18:12;;;;;;;6.88;5.80;;;;;;;;;;10466697;28;20229;-72
2022/04/21 10:23:16;;;;;;;7.28;5.20;;;;;;;;;;10466788;28;20095;-70
2022/04/21 10:28:50;;;;;;;6.43;5.07;;;;;;;;;;10466255;28;20057;-70
2022/04/21 10:33:54;;;;;;;5.43;4.63;;;;;;;;;;10434394;28;20044;-70
2022/04/21 10:39:14;;;;;;;6.93;5.68;;;;;;;;;;10467091;28;20598;-72
2022/04/21 10:44:15;;;;;;;4.22;3.70;;;;;;;;;;10453609;28;20047;-70
2022/04/21 10:49:35;;;;;;;5.70;5.10;;;;;;;;;;10480255;28;20053;-72
2022/04/21 11:00:11;;;;;;;5.40;4.90;;;;;;;;;;10471555;28;20041;-70
2022/04/21 11:05:33;;;;;;;4.28;3.88;;;;;;;;;;10462825;28;20051;-72
2022/04/21 11:10:36;;;;;;;4.63;3.88;;;;;;;;;;10476903;28;20140;-71
2022/04/21 11:15:41;;;;;;;3.90;3.40;;;;;;;;;;10478232;28;20051;-70
2022/04/21 11:20:42;;;;;;;4.97;3.63;;;;;;;;;;10476784;28;20132;-71
2022/04/21 11:25:47;;;;;;;4.53;3.67;;;;;;;;;;10495404;28;20049;-80
2022/04/21 11:30:47;;;;;;;3.92;3.63;;;;;;;;;;10511503;28;20048;-81
2022/04/21 11:35:48;;;;;;;4.50;3.63;;;;;;;;;;10501814;28;20024;-82
2022/04/21 11:40:48;;;;;;;4.68;3.40;;;;;;;;;;10510849;28;20040;-82
2022/04/21 11:46:00;;;;;;;4.63;3.97;;;;;;;;;;10482356;28;20070;-84
2022/04/21 11:51:34;;;;;;;4.00;3.60;;;;;;;;;;10491962;28;20390;-78
2022/04/21 11:56:56;;;;;;;5.05;4.07;;;;;;;;;;10451475;28;20059;-81
2022/04/21 12:07:29;;;;;;;3.75;3.10;;;;;;;;;;10484525;28;20044;-87
2022/04/21 12:12:53;;;;;;;4.70;3.45;;;;;;;;;;10500547;28;20064;-80
2022/04/21 12:18:19;;;;;;;3.78;3.47;;;;;;;;;;10461242;28;20047;-84
2022/04/21 12:23:54;;;;;;;3.67;3.30;;;;;;;;;;10477636;28;20036;-84
2022/04/21 12:28:58;;;;;;;3.35;3.05;;;;;;;;;;10490417;28;20029;-83
2022/04/21 12:34:06;;;;;;;3.95;2.78;;;;;;;;;;10494056;28;20044;-84
2022/04/21 12:39:21;;;;;;;3.13;2.67;;;;;;;;;;10480849;28;20040;-82
2022/04/21 12:44:31;;;;;;;3.10;2.80;;;;;;;;;;10449452;28;20112;-84
2022/04/21 12:49:52;;;;;;;3.22;2.10;;;;;;;;;;10483397;28;20112;-82
2022/04/21 12:54:54;;;;;;;3.60;2.60;;;;;;;;;;10451287;28;20139;-83
2022/04/21 12:59:56;;;;;;;2.83;2.30;;;;;;;;;;10485314;28;20064;-80
2022/04/21 13:05:00;;;;;;;4.18;2.33;;;;;;;;;;10492196;28;20024;-80
2022/04/21 13:10:03;;;;;;;4.10;2.57;;;;;;;;;;10552574;22;20109;-84
2022/04/21 13:15:04;;;;;;;4.53;2.92;;;;;;;;;;10423742;28;20045;-80
2022/04/21 13:20:10;;;;;;;3.40;3.07;;;;;;;;;;10425660;28;20052;-82
2022/04/21 13:25:20;;;;;;;3.00;2.50;;;;;;;;;;10415801;28;20097;-83
2022/04/21 13:30:31;;;;;;;3.63;3.20;;;;;;;;;;10455016;28;20040;-81
2022/04/21 13:35:32;;;;;;;4.45;3.92;;;;;;;;;;10415212;28;20085;-80
2022/04/21 13:40:35;;;;;;;4.60;3.53;;;;;;;;;;10418085;28;20044;-79
2022/04/21 13:45:37;;;;;;;4.18;3.67;;;;;;;;;;10424534;28;20292;-79
2022/04/21 13:50:39;;;;;;;4.30;3.83;;;;;;;;;;10424966;28;20054;-78
2022/04/21 13:55:40;;;;;;;4.60;3.70;;;;;;;;;;10448585;28;20064;-79
2022/04/21 14:00:45;;;;;;;4.80;3.30;;;;;;;;;;10412728;28;20025;-78
2022/04/21 14:05:47;;;;;;;4.22;3.47;;;;;;;;;;10423353;28;20036;-80
2022/04/21 14:10:48;;;;;;;3.23;2.93;;;;;;;;;;10423163;28;20057;-80
2022/04/21 14:15:51;;;;;;;3.97;3.20;;;;;;;;;;10398016;28;20383;-78
2022/04/21 14:20:56;;;;;;;3.17;2.88;;;;;;;;;;10427573;28;20076;-79
2022/04/21 14:26:25;;;;;;;4.25;3.50;;;;;;;;;;10426922;28;20033;-80
2022/04/21 14:31:38;;;;;;;3.70;3.40;;;;;;;;;;10431662;28;20046;-80
2022/04/21 14:36:40;;;;;;;3.70;3.30;;;;;;;;;;10416540;28;20033;-80
2022/04/21 14:47:03;;;;;;;5.40;3.83;;;;;;;;;;10436419;28;20052;-79
2022/04/21 14:52:11;;;;;;;4.05;3.67;;;;;;;;;;10418210;28;20050;-79
2022/04/21 14:57:16;;;;;;;4.10;3.70;;;;;;;;;;10425639;28;20045;-79
2022/04/21 15:02:46;;;;;;;4.38;3.78;;;;;;;;;;10433069;28;20446;-80
2022/04/21 15:07:47;;;;;;;5.17;4.67;;;;;;;;;;10421467;28;20041;-78
2022/04/21 15:12:51;;;;;;;4.88;4.28;;;;;;;;;;10438352;28;20380;-79
2022/04/21 15:17:55;;;;;;;5.30;4.07;;;;;;;;;;10432123;28;20097;-81
2022/04/21 15:23:17;;;;;;;4.78;4.38;;;;;;;;;;10432872;28;20037;-81
2022/04/21 15:28:46;;;;;;;4.82;4.15;;;;;;;;;;10444872;28;20041;-82
2022/04/21 15:33:48;;;;;;;5.18;4.35;;;;;;;;;;10436112;28;20071;-81
2022/04/21 15:38:59;;;;;;;5.20;4.15;;;;;;;;;;10445829;28;20055;-80
2022/04/21 15:44:05;;;;;;;4.97;4.53;;;;;;;;;;10480682;28;20022;-79
2022/04/21 15:49:09;;;;;;;5.60;5.10;;;;;;;;;;10457232;28;20089;-79
2022/04/21 15:59:30;;;;;;;4.70;4.20;;;;;;;;;;10473388;28;20044;-79
2022/04/21 16:04:31;;;;;;;8.20;7.40;;;;;;;;;;10441371;28;20037;-79
2022/04/21 16:09:33;;;;;;;5.65;4.75;;;;;;;;;;10446823;28;20042;-81
2022/04/21 16:14:33;;;;;;;5.53;4.82;;;;;;;;;;10447600;28;20428;-77
2022/04/21 16:19:38;;;;;;;5.43;3.75;;;;;;;;;;10437355;28;20042;-79
2022/04/21 16:24:40;;;;;;;6.40;4.70;;;;;;;;;;10445579;28;20038;-80
2022/04/21 16:29:42;;;;;;;7.53;4.82;;;;;;;;;;10449766;28;20112;-78
2022/04/21 16:34:43;;;;;;;7.73;6.17;;;;;;;;;;10441784;28;20120;-80
2022/04/21 16:39:44;;;;;;;7.20;5.43;;;;;;;;;;10437116;28;20036;-79
2022/04/21 16:44:50;;;;;;;6.13;5.33;;;;;;;;;;10429763;28;20041;-80
2022/04/21 16:49:50;;;;;;;7.68;5.22;;;;;;;;;;10422331;28;20037;-79
2022/04/21 16:54:52;;;;;;;7.05;4.85;;;;;;;;;;10417848;28;20041;-78
2022/04/21 16:59:52;;;;;;;7.05;4.78;;;;;;;;;;10423215;28;20152;-82
2022/04/21 17:04:55;;;;;;;5.85;4.88;;;;;;;;;;10427238;28;20041;-81
2022/04/21 17:09:58;;;;;;;4.93;4.32;;;;;;;;;;10425062;28;20372;-80
2022/04/21 17:15:00;;;;;;;7.47;4.97;;;;;;;;;;10400275;28;20057;-82
2022/04/21 17:20:02;;;;;;;6.68;5.18;;;;;;;;;;10434874;28;20028;-83
2022/04/21 17:25:08;;;;;;;6.37;5.67;;;;;;;;;;10460111;28;20104;-80
2022/04/21 17:30:10;;;;;;;7.35;5.65;;;;;;;;;;10404217;28;20095;-80
2022/04/21 17:35:53;;;;;;;6.00;4.55;;;;;;;;;;10434329;28;20029;-79
2022/04/21 17:41:04;;;;;;;5.72;4.40;;;;;;;;;;10437532;28;20064;-79
2022/04/21 17:46:08;;;;;;;7.28;4.80;;;;;;;;;;10403724;28;20037;-83
2022/04/21 17:51:10;;;;;;;6.75;4.70;;;;;;;;;;10423783;28;20053;-78
2022/04/21 17:56:14;;;;;;;6.30;5.25;;;;;;;;;;10437451;28;20041;-79
2022/04/21 18:01:18;;;;;;;5.95;4.63;;;;;;;;;;10426029;28;20124;-81
2022/04/21 18:06:27;;;;;;;5.30;4.70;;;;;;;;;;10434916;28;20069;-79
2022/04/21 18:12:15;;;;;;;8.15;6.05;;;;;;;;;;10456121;28;20050;-85
2022/04/21 18:17:39;;;;;;;6.40;5.38;;;;;;;;;;10412892;28;20041;-82
2022/04/21 18:22:57;;;;;;;7.35;6.13;;;;;;;;;;10440421;28;20017;-83
2022/04/21 18:28:30;;;;;;;8.65;7.45;;;;;;;;;;10446068;23;20046;-82
2022/04/21 18:45:03;;;;;;;9.93;7.03;;;;;;;;;;10550399;23;20043;-82
2022/04/21 18:50:37;;;;;;;11.35;7.80;;;;;;;;;;10421158;28;20041;-82
2022/04/21 18:56:11;;;;;;;;;;;;;;;;;;10415071;28;20037;-82
2022/04/21 19:01:29;;;;;;;9.75;7.38;;;;;;;;;;10401212;28;19968;-81
2022/04/21 19:07:35;;;;;;;11.30;7.95;;;;;;;;;;10484101;23;20050;-82
2022/04/21 19:19:48;;;;;;;11.90;8.63;;;;;;;;;;10359572;28;20034;-83
2022/04/21 19:48:45;;;;;;;7.75;6.57;;;;;;;;;;10644160;23;19944;-84
2022/04/21 19:54:35;;;;;;;8.10;6.72;;;;;;;;;;10426310;28;20053;-83
2022/04/21 20:00:34;;;;;;;8.63;6.40;;;;;;;;;;10347187;28;21173;-83
2022/04/21 20:12:42;;;;;;;8.13;6.32;;;;;;;;;;10341879;28;20067;-82
2022/04/21 20:18:24;;;;;;;8.70;7.10;;;;;;;;;;10349113;28;20050;-81
2022/04/21 20:29:12;;;;;;;11.13;8.13;;;;;;;;;;10532104;23;20036;-82
2022/04/21 20:34:32;;;;;;;10.75;7.57;;;;;;;;;;10422276;28;20089;-79
2022/04/21 20:39:39;;;;;;;13.00;8.93;;;;;;;;;;10389631;28;20081;-81
2022/04/21 21:07:05;;;;;;;12.77;9.38;;;;;;;;;;4658580;23;20038;-80
2022/04/21 21:11:33;;;;;;;16.38;10.95;;;;;;;;;;10361984;28;20037;-81
2022/04/21 21:17:02;;;;;;;12.65;10.20;;;;;;;;;;10375977;28;20045;-80
2022/04/21 21:22:25;;;;;;;11.85;9.55;;;;;;;;;;10354440;28;20058;-82
2022/04/21 21:27:35;;;;;;;15.43;10.85;;;;;;;;;;10330816;28;20585;-79
2022/04/21 21:32:50;;;;;;;13.05;9.80;;;;;;;;;;10351193;28;20034;-80
2022/04/21 21:37:53;;;;;;;13.57;9.52;;;;;;;;;;10345974;28;20061;-80
2022/04/21 21:43:06;;;;;;;14.70;10.25;;;;;;;;;;10331532;28;20057;-80
2022/04/21 21:53:38;;;;;;;15.18;10.57;;;;;;;;;;10362186;28;20035;-78
2022/04/21 21:58:43;;;;;;;;;;;;;;;;;;10341619;28;20335;-79
2022/04/21 22:03:46;;;;;;;;;;;;;;;;;;10364692;28;19918;-78
2022/04/21 22:08:46;;;;;;;15.30;11.25;;;;;;;;;;10353840;28;19986;-79
2022/04/21 22:13:47;;;;;;;16.50;11.20;;;;;;;;;;10345305;28;20053;-78
2022/04/21 22:18:47;;;;;;;17.67;11.40;;;;;;;;;;10345380;28;20133;-79
2022/04/21 22:23:48;;;;;;;16.15;11.25;;;;;;;;;;10358681;28;20049;-75
2022/04/21 22:28:52;;;;;;;16.30;11.15;;;;;;;;;;10365413;28;20114;-79
2022/04/21 22:33:54;;;;;;;16.98;12.00;;;;;;;;;;10353023;28;20054;-79
2022/04/21 22:38:54;;;;;;;16.47;12.07;;;;;;;;;;10346843;28;20046;-78
2022/04/21 22:43:56;;;;;;;17.03;12.37;;;;;;;;;;10369443;28;20286;-78
2022/04/21 22:48:59;;;;;;;20.30;13.80;;;;;;;;;;10361398;28;20178;-77
2022/04/21 22:54:00;;;;;;;20.70;13.38;;;;;;;;;;10360381;28;20802;-78
2022/04/21 22:59:03;;;;;;;19.57;12.70;;;;;;;;;;10370366;28;20061;-79
2022/04/21 23:04:04;;;;;;;19.90;13.80;;;;;;;;;;10335862;28;20072;-79
2022/04/21 23:14:38;;;;;;;21.05;13.75;;;;;;;;;;10318132;28;20062;-78
2022/04/21 23:19:44;;;;;;;22.85;14.30;;;;;;;;;;10335231;28;20097;-81
2022/04/21 23:24:46;;;;;;;19.48;13.85;;;;;;;;;;10347990;28;20042;-77
2022/04/21 23:29:47;;;;;;;20.77;14.57;;;;;;;;;;10363116;28;20069;-78
2022/04/21 23:34:47;;;;;;;21.95;15.10;;;;;;;;;;10337145;28;20065;-77
2022/04/21 23:39:48;;;;;;;24.17;15.43;;;;;;;;;;10375600;28;20054;-78
2022/04/21 23:44:50;;;;;;;21.20;15.07;;;;;;;;;;10360658;28;20076;-78
2022/04/21 23:49:50;;;;;;;21.17;15.03;;;;;;;;;;10337793;28;20054;-77
2022/04/21 23:54:53;;;;;;;19.77;14.20;;;;;;;;;;10356546;28;20301;-77
2022/04/21 23:59:53;;;;;;;22.48;14.55;;;;;;;;;;10342012;28;20057;-78
